Time;durP1;ratioP1;P1;durP2;ratioP2;P2;SDS_P1;SDS_P2;PMS_P1;PMS_P2;Temp;Humidity;BMP_temperature;BMP_pressure;BME280_temperature;BME280_humidity;BME280_pressure;Samples;Min_cycle;Max_cycle;Signal;HPM_P1;HPM_P2
2023/01/12 00:02:23;;;;;;;18.15;16.05;;;9.70;96.70;;;;;;5045914;28;20045;-74
2023/01/12 00:04:52;;;;;;;21.33;16.17;;;9.70;96.70;;;;;;5043242;28;20526;-74
2023/01/12 00:07:20;;;;;;;20.00;15.93;;;9.70;96.70;;;;;;5042361;28;20041;-74
2023/01/12 00:09:48;;;;;;;17.42;15.07;;;9.70;96.70;;;;;;5045736;28;20686;-73
2023/01/12 00:12:16;;;;;;;18.67;15.07;;;9.70;96.70;;;;;;5026629;28;20052;-74
2023/01/12 00:14:44;;;;;;;18.25;14.70;;;9.80;96.70;;;;;;5043861;28;20045;-74
2023/01/12 00:17:16;;;;;;;17.95;15.07;;;9.80;96.70;;;;;;5044075;28;20040;-74
2023/01/12 00:19:44;;;;;;;18.33;15.13;;;9.80;96.70;;;;;;5043943;28;20060;-74
2023/01/12 00:22:12;;;;;;;19.42;14.18;;;9.80;96.70;;;;;;5027250;28;20045;-74
2023/01/12 00:24:43;;;;;;;15.82;13.13;;;9.70;96.70;;;;;;5044657;28;20041;-73
2023/01/12 00:27:13;;;;;;;13.38;11.98;;;9.70;96.70;;;;;;5038485;28;20052;-74
2023/01/12 00:29:42;;;;;;;13.27;11.43;;;9.80;96.70;;;;;;5043346;28;20053;-74
2023/01/12 00:32:13;;;;;;;11.95;10.23;;;9.80;96.70;;;;;;5045216;28;20073;-74
2023/01/12 00:34:41;;;;;;;11.65;9.88;;;9.80;96.70;;;;;;5045522;28;20052;-74
2023/01/12 00:37:10;;;;;;;10.93;9.82;;;9.80;96.70;;;;;;5044352;28;20316;-74
2023/01/12 00:39:38;;;;;;;10.45;8.70;;;9.80;96.70;;;;;;5039460;28;20079;-74
2023/01/12 00:45:23;;;;;;;10.90;8.95;;;9.80;96.70;;;;;;5013034;28;20049;-74
2023/01/12 00:47:53;;;;;;;9.77;8.05;;;9.80;96.70;;;;;;5037494;28;20061;-74
2023/01/12 00:50:21;;;;;;;9.52;8.50;;;9.80;96.70;;;;;;5045069;28;20049;-73
2023/01/12 00:52:49;;;;;;;9.02;7.93;;;9.80;96.70;;;;;;5044807;28;20045;-74
2023/01/12 00:55:18;;;;;;;9.77;8.57;;;9.80;96.70;;;;;;5041851;28;20045;-74
2023/01/12 00:57:46;;;;;;;9.27;7.45;;;9.80;96.70;;;;;;5042652;28;20111;-74
2023/01/12 01:00:15;;;;;;;8.23;6.60;;;9.80;96.70;;;;;;5044623;28;20128;-73
2023/01/12 01:02:43;;;;;;;7.78;6.28;;;9.80;96.70;;;;;;5043326;28;20049;-74
2023/01/12 01:05:13;;;;;;;7.63;6.15;;;9.80;96.70;;;;;;5043252;28;20052;-74
2023/01/12 01:07:41;;;;;;;7.18;6.22;;;9.80;96.70;;;;;;5044528;28;20506;-74
2023/01/12 01:10:10;;;;;;;5.38;4.80;;;9.80;96.70;;;;;;5042843;28;20056;-74
2023/01/12 01:12:38;;;;;;;6.28;4.43;;;9.80;96.70;;;;;;5043836;28;20045;-74
2023/01/12 01:15:08;;;;;;;4.88;4.38;;;9.80;96.70;;;;;;5042741;28;20124;-74
2023/01/12 01:17:36;;;;;;;6.63;5.25;;;9.70;96.70;;;;;;5044326;28;20819;-74
2023/01/12 01:20:05;;;;;;;6.05;4.50;;;9.70;96.70;;;;;;5043600;28;20543;-74
2023/01/12 01:22:35;;;;;;;4.72;4.18;;;9.70;96.70;;;;;;5042417;28;20049;-74
2023/01/12 01:25:03;;;;;;;4.90;4.22;;;9.70;96.70;;;;;;5042888;28;20095;-74
2023/01/12 01:27:31;;;;;;;4.30;3.38;;;9.70;96.70;;;;;;5042210;28;20655;-73
2023/01/12 01:29:59;;;;;;;4.47;3.40;;;9.70;96.70;;;;;;5026351;28;20037;-74
2023/01/12 01:32:32;;;;;;;3.92;2.92;;;9.70;96.70;;;;;;5043181;28;20078;-74
2023/01/12 01:35:01;;;;;;;4.88;3.47;;;9.70;96.70;;;;;;5024450;28;20090;-74
2023/01/12 01:37:29;;;;;;;4.03;3.05;;;9.70;96.70;;;;;;5044052;28;20163;-74
2023/01/12 01:39:59;;;;;;;4.05;2.55;;;9.70;96.70;;;;;;5043925;28;20052;-74
2023/01/12 01:42:27;;;;;;;3.65;2.60;;;9.70;96.70;;;;;;5026088;28;20540;-74
2023/01/12 01:44:57;;;;;;;4.95;2.78;;;9.70;96.70;;;;;;5042153;28;20454;-74
2023/01/12 01:47:30;;;;;;;3.95;2.92;;;9.60;96.70;;;;;;5041912;28;20055;-73
2023/01/12 01:50:01;;;;;;;6.07;3.13;;;9.60;96.70;;;;;;5044479;28;20045;-73
2023/01/12 01:52:33;;;;;;;4.40;3.55;;;9.60;96.70;;;;;;5043720;28;20527;-74
2023/01/12 01:55:05;;;;;;;3.90;3.38;;;9.60;96.70;;;;;;5038392;28;20633;-74
2023/01/12 01:57:39;;;;;;;5.20;4.70;;;9.60;96.70;;;;;;5042907;28;20041;-74
2023/01/12 02:00:09;;;;;;;5.07;4.13;;;9.70;96.70;;;;;;5034991;28;20053;-73
2023/01/12 02:02:39;;;;;;;5.28;4.78;;;9.60;96.70;;;;;;5041867;28;20048;-73
2023/01/12 02:05:09;;;;;;;5.40;4.88;;;9.70;96.70;;;;;;5040676;28;20057;-73
2023/01/12 02:07:38;;;;;;;5.70;4.40;;;9.70;96.70;;;;;;5038954;28;20045;-74
2023/01/12 02:10:09;;;;;;;5.93;4.85;;;9.70;96.70;;;;;;5041139;28;20055;-73
2023/01/12 02:18:21;;;;;;;5.43;4.72;;;9.70;96.70;;;;;;5042933;28;20057;-74
2023/01/12 02:21:02;;;;;;;6.07;5.35;;;9.70;96.70;;;;;;5041382;28;20048;-74
2023/01/12 02:24:08;;;;;;;7.47;5.10;;;9.80;96.70;;;;;;5043334;28;20124;-74
2023/01/12 02:27:17;;;;;;;8.10;6.03;;;9.80;96.70;;;;;;5039216;28;20041;-74
2023/01/12 02:30:18;;;;;;;6.28;5.47;;;9.80;96.70;;;;;;5036039;28;20049;-74
2023/01/12 02:32:55;;;;;;;4.95;4.30;;;9.80;96.70;;;;;;5017847;28;20506;-74
2023/01/12 02:35:30;;;;;;;5.10;4.60;;;9.80;96.70;;;;;;5034156;28;20075;-74
2023/01/12 02:38:06;;;;;;;5.35;4.80;;;9.80;96.70;;;;;;5024978;28;20051;-73
2023/01/12 02:40:43;;;;;;;5.43;4.55;;;9.80;96.70;;;;;;5041382;28;20080;-74
2023/01/12 02:43:13;;;;;;;;;;;9.80;96.70;;;;;;5033469;28;20103;-74
2023/01/12 02:45:51;;;;;;;5.80;5.22;;;9.80;96.70;;;;;;5042569;28;19982;-73
2023/01/12 02:48:26;;;;;;;5.75;5.15;;;9.80;96.70;;;;;;5040461;28;20061;-74
2023/01/12 02:51:00;;;;;;;5.57;4.93;;;9.80;96.70;;;;;;5042334;28;20037;-73
2023/01/12 02:53:32;;;;;;;7.13;5.20;;;9.80;96.70;;;;;;5042919;28;20049;-74
2023/01/12 02:56:04;;;;;;;5.95;5.35;;;9.80;96.70;;;;;;5041222;28;20056;-74
2023/01/12 02:58:35;;;;;;;5.78;5.05;;;9.80;96.70;;;;;;5040730;28;20539;-73
2023/01/12 03:01:05;;;;;;;6.07;4.55;;;9.80;96.70;;;;;;5040377;28;20056;-73
2023/01/12 03:03:38;;;;;;;5.57;4.90;;;9.80;96.70;;;;;;5041886;28;20487;-74
2023/01/12 03:06:07;;;;;;;6.50;5.78;;;9.70;96.70;;;;;;5034059;28;20073;-74
2023/01/12 03:08:37;;;;;;;7.78;6.97;;;9.80;96.70;;;;;;5041043;28;20487;-74
2023/01/12 03:11:13;;;;;;;6.47;5.70;;;9.80;96.70;;;;;;5040909;28;20153;-74
2023/01/12 03:13:47;;;;;;;6.53;5.65;;;9.70;96.70;;;;;;5041318;28;20044;-74
2023/01/12 03:16:19;;;;;;;6.00;5.40;;;9.70;96.70;;;;;;5041189;28;20118;-74
2023/01/12 03:18:53;;;;;;;6.40;5.32;;;9.70;96.70;;;;;;5026470;28;20049;-74
2023/01/12 03:21:26;;;;;;;6.65;5.10;;;9.70;96.70;;;;;;5028773;28;20060;-75
2023/01/12 03:23:59;;;;;;;5.50;4.88;;;9.70;96.70;;;;;;5061865;28;20155;-74
2023/01/12 03:26:31;;;;;;;5.63;4.97;;;9.70;96.70;;;;;;5046400;28;20115;-73
2023/01/12 03:29:03;;;;;;;5.57;4.60;;;9.70;96.70;;;;;;5040264;28;20475;-74
2023/01/12 03:31:32;;;;;;;6.40;5.20;;;9.70;96.70;;;;;;5046435;28;20063;-73
2023/01/12 03:34:01;;;;;;;6.32;4.97;;;9.70;96.70;;;;;;5046132;28;20426;-74
2023/01/12 03:36:40;;;;;;;5.43;4.90;;;9.70;96.70;;;;;;5039681;28;20045;-74
2023/01/12 03:39:15;;;;;;;6.38;4.50;;;9.70;96.70;;;;;;5041385;28;20041;-74
2023/01/12 03:41:53;;;;;;;5.35;4.78;;;9.70;96.70;;;;;;5045766;28;20134;-74
2023/01/12 03:44:29;;;;;;;6.55;4.72;;;9.70;96.70;;;;;;5045657;28;20490;-74
2023/01/12 03:47:01;;;;;;;4.97;4.47;;;9.70;96.70;;;;;;5046408;28;20049;-73
2023/01/12 03:49:33;;;;;;;4.93;4.38;;;9.60;96.70;;;;;;5046206;28;20489;-73
2023/01/12 03:52:03;;;;;;;4.30;3.78;;;9.60;96.70;;;;;;5042916;28;20127;-74
2023/01/12 03:54:33;;;;;;;5.53;4.18;;;9.60;96.70;;;;;;5043797;28;20510;-73
2023/01/12 03:57:02;;;;;;;4.53;3.88;;;9.60;96.70;;;;;;5039342;28;20045;-74
2023/01/12 03:59:30;;;;;;;6.82;4.07;;;9.60;96.70;;;;;;5044320;28;20099;-73
2023/01/12 04:01:58;;;;;;;3.97;3.50;;;9.60;96.70;;;;;;5044553;28;20445;-74
2023/01/12 04:04:26;;;;;;;4.50;3.40;;;9.60;96.70;;;;;;5044519;28;20808;-74
2023/01/12 04:06:55;;;;;;;5.32;3.75;;;9.60;96.70;;;;;;5043011;28;20053;-74
2023/01/12 04:09:24;;;;;;;5.28;4.15;;;9.50;96.70;;;;;;5045446;28;20044;-74
2023/01/12 04:12:10;;;;;;;4.78;3.72;;;9.50;96.70;;;;;;5045588;28;20052;-73
2023/01/12 04:14:39;;;;;;;4.65;3.45;;;9.60;96.70;;;;;;5043693;28;20487;-74
2023/01/12 04:17:08;;;;;;;4.40;3.67;;;9.60;96.70;;;;;;5043249;28;20044;-73
2023/01/12 04:19:36;;;;;;;5.25;3.80;;;9.60;96.70;;;;;;5043946;28;20049;-74
2023/01/12 04:24:54;;;;;;;4.25;3.85;;;9.60;96.70;;;;;;5043700;28;20766;-74
2023/01/12 04:27:21;;;;;;;4.55;3.60;;;9.60;96.70;;;;;;5043365;28;20152;-74
2023/01/12 04:29:49;;;;;;;4.43;3.83;;;9.60;96.70;;;;;;5045267;28;20057;-74
2023/01/12 04:32:17;;;;;;;3.95;2.88;;;9.60;96.70;;;;;;5045228;28;20132;-74
2023/01/12 04:34:45;;;;;;;4.80;3.45;;;9.50;96.70;;;;;;5043950;28;20772;-74
2023/01/12 04:37:15;;;;;;;4.05;3.60;;;9.50;96.70;;;;;;5023931;28;20037;-74
2023/01/12 04:39:42;;;;;;;5.07;3.75;;;9.50;96.70;;;;;;5042781;28;20063;-74
2023/01/12 04:42:59;;;;;;;3.90;3.30;;;9.50;96.70;;;;;;5043041;28;20093;-74
2023/01/12 04:44:58;;;;;;;3.50;2.83;;;9.50;96.70;;;;;;5043286;28;20068;-73
2023/01/12 04:47:26;;;;;;;3.63;3.17;;;9.50;96.70;;;;;;5044610;28;20140;-74
2023/01/12 04:49:54;;;;;;;5.40;3.40;;;9.50;96.70;;;;;;5045224;28;20056;-73
2023/01/12 04:52:24;;;;;;;4.28;3.35;;;9.40;96.70;;;;;;5026927;28;20463;-74
2023/01/12 04:54:52;;;;;;;4.10;3.50;;;9.40;96.70;;;;;;5045022;28;20151;-73
2023/01/12 04:57:23;;;;;;;5.88;5.20;;;9.40;96.70;;;;;;5022852;28;20048;-74
2023/01/12 04:59:51;;;;;;;4.78;4.15;;;9.40;96.70;;;;;;5041862;28;20037;-74
2023/01/12 05:02:19;;;;;;;3.50;3.20;;;9.30;96.70;;;;;;5043077;28;20126;-74
2023/01/12 05:04:47;;;;;;;4.60;3.58;;;9.20;96.70;;;;;;5043056;28;20036;-74
2023/01/12 05:07:16;;;;;;;4.25;3.03;;;9.20;96.70;;;;;;5050502;28;20044;-73
2023/01/12 05:12:32;;;;;;;5.85;3.60;;;9.10;96.70;;;;;;5044026;28;20132;-73
2023/01/12 05:15:00;;;;;;;4.20;3.67;;;9.00;96.70;;;;;;5026156;28;20056;-74
2023/01/12 05:17:28;;;;;;;5.05;4.30;;;9.00;96.70;;;;;;5043167;28;20118;-73
2023/01/12 05:19:56;;;;;;;4.10;3.67;;;9.00;96.70;;;;;;5043083;28;20071;-73
2023/01/12 05:22:27;;;;;;;6.30;4.18;;;9.00;96.70;;;;;;5043095;28;20095;-74
2023/01/12 05:24:56;;;;;;;4.28;3.63;;;9.00;96.70;;;;;;5042667;28;20033;-74
2023/01/12 05:27:24;;;;;;;4.20;3.80;;;9.00;96.70;;;;;;5043989;28;20045;-74
2023/01/12 05:29:52;;;;;;;4.47;4.07;;;8.90;96.70;;;;;;5046525;28;20112;-73
2023/01/12 05:32:20;;;;;;;4.70;4.13;;;8.90;96.70;;;;;;5050393;28;20041;-74
2023/01/12 05:34:48;;;;;;;4.88;4.18;;;8.90;96.70;;;;;;5044360;28;20487;-74
2023/01/12 05:37:16;;;;;;;5.43;4.20;;;8.90;96.70;;;;;;5038210;28;20135;-74
2023/01/12 05:39:44;;;;;;;5.93;5.43;;;8.90;96.70;;;;;;5043724;28;20080;-72
2023/01/12 05:45:20;;;;;;;6.80;4.95;;;8.90;96.70;;;;;;4960130;28;20055;-75
2023/01/12 05:47:56;;;;;;;6.28;4.60;;;8.90;96.70;;;;;;4941441;29;20051;-73
2023/01/12 05:50:24;;;;;;;5.55;3.85;;;8.80;96.70;;;;;;4989970;28;20057;-73
2023/01/12 05:53:06;;;;;;;5.15;4.32;;;8.80;96.70;;;;;;5040945;28;20589;-74
2023/01/12 05:55:36;;;;;;;6.30;3.80;;;8.80;96.70;;;;;;5042860;28;20123;-73
2023/01/12 05:58:05;;;;;;;4.45;3.60;;;8.80;96.70;;;;;;5041316;28;20057;-74
2023/01/12 06:00:33;;;;;;;5.57;3.53;;;8.80;96.70;;;;;;5043678;28;20566;-74
2023/01/12 06:03:01;;;;;;;5.68;3.80;;;8.80;96.70;;;;;;5043813;28;20044;-74
2023/01/12 06:05:29;;;;;;;4.80;3.88;;;8.80;96.70;;;;;;5025254;28;20045;-74
2023/01/12 06:07:58;;;;;;;3.85;3.38;;;8.80;96.70;;;;;;5043646;28;20536;-73
2023/01/12 06:10:26;;;;;;;4.40;3.55;;;8.70;96.70;;;;;;5043447;28;20495;-74
2023/01/12 06:15:41;;;;;;;5.22;4.00;;;8.70;96.70;;;;;;5043369;28;20094;-73
2023/01/12 06:18:09;;;;;;;3.97;3.50;;;8.60;96.70;;;;;;5041939;28;20056;-73
2023/01/12 06:20:38;;;;;;;5.75;3.67;;;8.70;96.70;;;;;;5041983;28;20059;-73
2023/01/12 06:23:05;;;;;;;6.53;4.78;;;8.60;96.70;;;;;;5041594;28;20041;-73
2023/01/12 06:25:34;;;;;;;6.57;4.88;;;8.60;96.70;;;;;;5042089;28;20102;-74
2023/01/12 06:28:04;;;;;;;6.82;4.35;;;8.50;96.70;;;;;;5041278;28;20036;-73
2023/01/12 06:30:32;;;;;;;6.57;4.32;;;8.50;96.70;;;;;;5042978;28;20757;-73
2023/01/12 06:33:02;;;;;;;6.10;4.53;;;8.50;96.70;;;;;;5021691;28;20045;-74
2023/01/12 06:35:31;;;;;;;7.43;4.90;;;8.40;96.70;;;;;;5041979;28;20878;-74
2023/01/12 06:37:59;;;;;;;7.55;5.10;;;8.50;96.70;;;;;;5033243;28;20045;-73
2023/01/12 06:40:27;;;;;;;8.63;5.15;;;8.50;96.70;;;;;;5041395;28;20453;-74
2023/01/12 06:42:55;;;;;;;6.50;4.60;;;8.40;96.70;;;;;;5042113;28;20052;-74
2023/01/12 06:45:23;;;;;;;9.40;5.60;;;8.40;96.70;;;;;;5041380;28;20068;-74
2023/01/12 06:47:51;;;;;;;7.22;4.68;;;8.40;96.70;;;;;;5042759;28;20053;-74
2023/01/12 06:50:21;;;;;;;8.18;4.53;;;8.40;96.70;;;;;;5024148;28;20052;-74
2023/01/12 06:52:49;;;;;;;6.75;4.38;;;8.40;96.70;;;;;;5040311;28;20157;-73
2023/01/12 06:55:17;;;;;;;6.75;5.10;;;8.40;96.70;;;;;;5021634;28;20061;-73
2023/01/12 06:57:45;;;;;;;7.47;4.60;;;8.30;96.70;;;;;;5041197;28;20516;-73
2023/01/12 07:00:14;;;;;;;6.60;4.55;;;8.40;96.70;;;;;;5024774;28;20048;-73
2023/01/12 07:02:42;;;;;;;7.63;4.85;;;8.40;96.70;;;;;;5041029;28;20053;-73
2023/01/12 07:05:10;;;;;;;6.00;4.00;;;8.40;96.70;;;;;;5032971;28;20055;-73
2023/01/12 07:07:40;;;;;;;4.78;3.45;;;8.30;96.70;;;;;;5042907;28;20059;-74
2023/01/12 07:10:09;;;;;;;4.32;3.58;;;8.40;96.70;;;;;;5042351;28;20108;-74
2023/01/12 07:12:38;;;;;;;5.57;3.85;;;8.50;96.70;;;;;;5039844;28;20053;-74
2023/01/12 07:15:07;;;;;;;5.45;3.72;;;8.50;96.70;;;;;;5041745;28;20073;-73
2023/01/12 07:17:35;;;;;;;6.57;4.00;;;8.50;96.70;;;;;;5041798;28;20102;-74
2023/01/12 07:20:04;;;;;;;5.35;3.70;;;8.50;96.70;;;;;;5040565;28;20140;-73
2023/01/12 07:22:32;;;;;;;3.72;3.05;;;8.50;96.70;;;;;;5042038;28;20049;-74
2023/01/12 07:25:02;;;;;;;6.38;3.63;;;8.50;96.70;;;;;;5040654;28;20052;-73
2023/01/12 07:27:30;;;;;;;4.50;3.97;;;8.60;96.70;;;;;;5040661;28;20049;-73
2023/01/12 07:29:58;;;;;;;9.45;3.83;;;8.60;96.70;;;;;;5040332;28;20604;-74
2023/01/12 07:32:28;;;;;;;5.63;4.72;;;8.40;96.70;;;;;;5041064;28;20525;-75
2023/01/12 07:34:56;;;;;;;5.35;4.10;;;8.50;96.70;;;;;;5040461;28;20138;-75
2023/01/12 07:37:24;;;;;;;5.30;4.80;;;8.60;96.70;;;;;;5036872;28;20040;-74
2023/01/12 07:39:53;;;;;;;5.72;4.40;;;8.60;96.70;;;;;;5041231;28;20529;-75
2023/01/12 07:42:22;;;;;;;6.60;4.65;;;8.70;96.70;;;;;;5034455;28;20522;-73
2023/01/12 07:44:51;;;;;;;7.93;4.82;;;8.60;96.70;;;;;;5040356;28;20053;-74
2023/01/12 07:47:19;;;;;;;6.13;5.47;;;8.70;96.70;;;;;;5041786;28;20048;-74
2023/01/12 07:49:47;;;;;;;7.43;5.70;;;8.80;96.70;;;;;;5040811;28;20056;-74
2023/01/12 07:52:15;;;;;;;10.60;5.97;;;8.70;96.70;;;;;;5024127;28;20053;-74
2023/01/12 07:54:43;;;;;;;8.25;5.57;;;8.50;96.70;;;;;;5042056;28;20451;-74
2023/01/12 07:57:11;;;;;;;10.43;6.45;;;8.60;96.70;;;;;;5040322;28;20041;-74
2023/01/12 07:59:41;;;;;;;10.07;5.80;;;8.60;96.70;;;;;;5041543;28;20083;-74
2023/01/12 08:02:15;;;;;;;10.02;6.90;;;8.70;96.70;;;;;;5042534;28;20053;-73
2023/01/12 08:04:44;;;;;;;10.80;7.22;;;8.80;96.70;;;;;;5043405;28;20060;-73
2023/01/12 08:07:13;;;;;;;13.02;7.80;;;8.80;96.70;;;;;;5043654;28;20573;-73
2023/01/12 08:09:41;;;;;;;11.50;7.13;;;8.90;96.70;;;;;;5044855;28;20122;-73
2023/01/12 08:12:09;;;;;;;12.32;7.63;;;8.90;96.70;;;;;;5044130;28;20053;-73
2023/01/12 08:14:40;;;;;;;12.23;7.68;;;9.00;96.70;;;;;;5027232;28;20072;-73
2023/01/12 08:17:13;;;;;;;10.80;6.88;;;9.00;96.70;;;;;;5044311;28;20079;-72
2023/01/12 08:19:45;;;;;;;10.02;7.22;;;9.00;96.70;;;;;;5045213;28;20114;-73
2023/01/12 08:22:17;;;;;;;10.82;6.88;;;9.10;96.70;;;;;;5043656;28;20056;-73
2023/01/12 08:24:50;;;;;;;11.57;6.45;;;9.20;96.70;;;;;;5044334;28;20107;-73
2023/01/12 08:27:23;;;;;;;13.50;7.32;;;9.20;96.70;;;;;;5045592;28;20044;-73
2023/01/12 08:29:57;;;;;;;13.90;7.20;;;9.30;96.70;;;;;;5043899;28;20041;-73
2023/01/12 08:32:27;;;;;;;14.27;7.88;;;9.30;96.70;;;;;;5043948;28;21181;-73
2023/01/12 08:34:59;;;;;;;16.75;8.60;;;9.40;96.70;;;;;;5042694;28;20139;-73
2023/01/12 08:37:29;;;;;;;21.70;9.25;;;9.50;96.70;;;;;;5023061;28;20076;-73
2023/01/12 08:39:58;;;;;;;15.52;8.27;;;9.60;96.70;;;;;;5044978;28;20056;-73
2023/01/12 08:42:29;;;;;;;19.73;9.60;;;9.80;96.70;;;;;;5045020;28;20048;-73
2023/01/12 08:45:00;;;;;;;18.85;9.40;;;9.80;96.70;;;;;;5036915;28;20040;-73
2023/01/12 08:47:29;;;;;;;20.55;9.55;;;9.80;96.70;;;;;;5045267;28;20145;-73
2023/01/12 08:49:59;;;;;;;22.23;9.93;;;9.90;96.70;;;;;;5045321;28;20053;-73
2023/01/12 08:52:33;;;;;;;19.65;9.57;;;10.00;96.70;;;;;;5043534;28;20049;-73
2023/01/12 08:55:01;;;;;;;16.75;9.07;;;10.10;96.70;;;;;;5044652;28;20045;-73
2023/01/12 08:57:29;;;;;;;17.30;8.50;;;10.10;96.70;;;;;;5044853;28;20398;-74
2023/01/12 08:59:59;;;;;;;17.25;9.27;;;10.20;96.70;;;;;;5043572;28;20104;-73
2023/01/12 09:02:27;;;;;;;19.48;8.80;;;10.20;96.70;;;;;;5044304;28;20053;-73
2023/01/12 09:04:55;;;;;;;18.27;9.02;;;10.30;96.70;;;;;;5042119;28;20085;-73
2023/01/12 09:07:23;;;;;;;18.67;9.38;;;10.40;96.70;;;;;;5043493;28;20502;-73
2023/01/12 09:09:51;;;;;;;15.10;8.45;;;10.50;96.70;;;;;;5044373;28;20045;-73
2023/01/12 09:12:19;;;;;;;20.95;9.15;;;10.50;96.70;;;;;;5043460;28;20037;-73
2023/01/12 09:14:49;;;;;;;20.58;9.30;;;10.60;96.70;;;;;;5043351;28;20103;-73
2023/01/12 09:17:21;;;;;;;15.32;8.15;;;10.70;96.70;;;;;;5023529;28;20809;-73
2023/01/12 09:19:50;;;;;;;13.85;7.97;;;10.70;96.70;;;;;;5037924;28;20695;-73
2023/01/12 09:22:18;;;;;;;10.80;7.05;;;10.70;96.70;;;;;;5042593;28;20041;-73
2023/01/12 09:24:46;;;;;;;13.15;6.88;;;10.70;96.70;;;;;;5044386;28;20624;-73
2023/01/12 09:27:14;;;;;;;8.98;5.68;;;10.80;96.70;;;;;;5044808;28;20514;-73
2023/01/12 09:29:42;;;;;;;9.60;5.95;;;10.90;96.70;;;;;;5042558;28;20606;-73
2023/01/12 09:32:10;;;;;;;10.43;5.90;;;11.00;96.70;;;;;;5042717;28;20045;-72
2023/01/12 09:34:39;;;;;;;13.77;7.28;;;11.10;96.70;;;;;;5041889;28;20053;-75
2023/01/12 09:37:07;;;;;;;17.52;8.32;;;11.30;96.70;;;;;;5042119;28;20079;-73
2023/01/12 09:39:35;;;;;;;17.95;8.18;;;11.40;96.70;;;;;;5044188;28;20041;-73
2023/01/12 09:47:47;;;;;;;10.93;5.03;;;11.80;96.70;;;;;;5042217;28;20053;-74
2023/01/12 09:50:21;;;;;;;12.95;5.25;;;12.00;96.70;;;;;;5044050;28;20052;-74
2023/01/12 09:52:51;;;;;;;8.15;4.85;;;12.10;96.70;;;;;;5043802;28;20048;-74
2023/01/12 09:55:22;;;;;;;9.68;4.47;;;12.30;96.70;;;;;;5042491;28;20052;-73
2023/01/12 09:58:11;;;;;;;9.63;3.92;;;12.30;96.70;;;;;;5037518;28;20044;-73
2023/01/12 10:00:39;;;;;;;5.25;3.30;;;12.30;96.70;;;;;;5038325;28;20057;-72
2023/01/12 10:03:15;;;;;;;5.18;3.08;;;12.20;96.70;;;;;;5043805;28;20106;-74
2023/01/12 10:05:48;;;;;;;6.75;3.30;;;12.10;96.70;;;;;;5041399;28;20045;-74
2023/01/12 10:08:24;;;;;;;4.80;2.83;;;12.10;96.70;;;;;;5042008;28;20088;-73
2023/01/12 10:11:04;;;;;;;5.63;3.15;;;12.00;96.70;;;;;;5043119;28;20127;-73
2023/01/12 10:14:05;;;;;;;6.68;2.95;;;11.90;96.70;;;;;;5035943;28;20126;-73
2023/01/12 10:16:45;;;;;;;4.40;2.38;;;11.90;96.70;;;;;;5025005;28;20052;-73
2023/01/12 10:19:21;;;;;;;6.07;2.88;;;11.90;96.70;;;;;;5034971;28;20045;-73
2023/01/12 10:21:52;;;;;;;7.53;4.80;;;11.90;96.70;;;;;;5041961;28;20048;-73
2023/01/12 10:24:22;;;;;;;11.10;7.22;;;11.70;96.70;;;;;;5041968;28;20041;-73
2023/01/12 10:26:56;;;;;;;6.85;5.60;;;11.70;96.70;;;;;;5041404;28;20407;-73
2023/01/12 10:29:27;;;;;;;5.38;4.55;;;11.80;96.70;;;;;;5043153;28;20406;-73
2023/01/12 10:31:56;;;;;;;5.18;4.07;;;11.80;96.70;;;;;;5041981;28;20041;-73
2023/01/12 10:34:24;;;;;;;7.45;4.15;;;11.90;96.70;;;;;;5043085;28;20055;-74
2023/01/12 10:36:59;;;;;;;7.30;4.10;;;11.90;96.70;;;;;;5020218;28;20188;-73
2023/01/12 10:39:30;;;;;;;5.47;3.67;;;12.00;96.70;;;;;;5034812;28;20053;-74
2023/01/12 10:45:15;;;;;;;4.72;3.05;;;12.10;96.70;;;;;;5040474;28;20183;-75
2023/01/12 10:47:45;;;;;;;5.57;2.90;;;12.10;96.70;;;;;;5042606;28;20107;-74
2023/01/12 10:50:21;;;;;;;5.97;2.70;;;12.20;96.70;;;;;;5041112;28;20068;-73
2023/01/12 10:52:54;;;;;;;;;;;12.40;96.70;;;;;;5041147;28;20056;-73
2023/01/12 10:55:27;;;;;;;5.13;2.60;;;12.50;96.70;;;;;;5024072;28;19925;-74
2023/01/12 10:57:55;;;;;;;6.05;2.72;;;12.60;96.70;;;;;;5019767;28;20052;-73
2023/01/12 11:00:25;;;;;;;4.80;2.72;;;12.60;96.70;;;;;;5042859;28;20102;-73
2023/01/12 11:02:53;;;;;;;8.30;3.63;;;12.70;96.70;;;;;;5041026;28;20076;-74
2023/01/12 11:05:32;;;;;;;4.13;2.40;;;12.70;96.70;;;;;;5038628;28;20057;-74
2023/01/12 11:08:02;;;;;;;4.55;2.78;;;12.80;96.70;;;;;;5041460;28;20434;-73
2023/01/12 11:10:32;;;;;;;6.28;3.00;;;12.80;96.70;;;;;;5042742;28;20041;-73
2023/01/12 11:13:04;;;;;;;3.92;2.50;;;12.80;96.70;;;;;;5039154;28;20503;-73
2023/01/12 11:15:37;;;;;;;4.22;2.47;;;12.80;96.70;;;;;;5040522;28;20851;-73
2023/01/12 11:18:21;;;;;;;4.03;2.28;;;12.80;96.70;;;;;;5035622;28;20202;-73
2023/01/12 11:20:53;;;;;;;4.43;2.40;;;12.80;96.70;;;;;;5042753;28;20044;-73
2023/01/12 11:23:29;;;;;;;4.70;2.60;;;12.70;96.70;;;;;;5042151;28;20631;-74
2023/01/12 11:26:00;;;;;;;4.80;2.45;;;12.80;96.70;;;;;;5034389;28;20079;-74
2023/01/12 11:28:32;;;;;;;5.68;2.10;;;12.90;96.70;;;;;;5040858;28;20049;-73
2023/01/12 11:31:07;;;;;;;5.55;2.08;;;13.10;96.70;;;;;;5042522;28;20051;-73
2023/01/12 11:33:40;;;;;;;4.43;2.25;;;13.20;96.70;;;;;;5041223;28;20143;-73
2023/01/12 11:36:10;;;;;;;3.55;2.05;;;13.40;96.70;;;;;;5033508;28;20048;-73
2023/01/12 11:38:42;;;;;;;2.85;2.15;;;13.50;96.70;;;;;;5041973;28;20501;-74
2023/01/12 11:41:28;;;;;;;5.60;2.75;;;13.60;96.70;;;;;;5046289;28;20094;-74
2023/01/12 11:44:01;;;;;;;4.40;1.80;;;13.60;96.70;;;;;;5043705;28;20048;-72
2023/01/12 11:46:35;;;;;;;3.08;1.90;;;13.70;96.70;;;;;;5028010;28;20057;-73
2023/01/12 11:49:11;;;;;;;7.18;2.53;;;13.80;96.70;;;;;;5044949;28;20048;-74
2023/01/12 11:51:40;;;;;;;3.22;2.22;;;13.90;96.70;;;;;;5045787;28;20126;-73
2023/01/12 11:54:15;;;;;;;6.82;2.00;;;13.80;96.70;;;;;;5024698;28;20045;-74
2023/01/12 11:57:01;;;;;;;6.38;3.05;;;13.80;96.70;;;;;;5044659;28;20060;-73
2023/01/12 11:59:36;;;;;;;7.63;4.70;;;13.90;96.70;;;;;;5027881;28;20098;-73
2023/01/12 12:02:20;;;;;;;6.35;3.15;;;14.00;96.70;;;;;;5045489;28;20569;-73
2023/01/12 12:04:59;;;;;;;5.85;4.15;;;14.00;96.70;;;;;;5045526;28;20064;-73
2023/01/12 12:07:41;;;;;;;4.70;3.75;;;14.00;96.70;;;;;;5043218;28;20742;-73
2023/01/12 12:10:22;;;;;;;5.65;2.83;;;14.00;96.70;;;;;;5035867;28;20627;-73
2023/01/12 12:13:28;;;;;;;6.22;2.95;;;14.10;96.70;;;;;;5027222;28;20296;-74
2023/01/12 12:16:06;;;;;;;11.50;10.15;;;14.00;96.70;;;;;;5044206;28;20469;-74
2023/01/12 12:18:50;;;;;;;4.03;2.38;;;14.00;96.70;;;;;;5044202;28;20049;-73
2023/01/12 12:21:35;;;;;;;5.90;1.90;;;14.00;96.70;;;;;;5043377;28;20037;-75
2023/01/12 12:24:12;;;;;;;3.78;2.20;;;14.10;96.70;;;;;;5039003;28;20049;-74
2023/01/12 12:26:47;;;;;;;5.53;3.65;;;14.20;96.70;;;;;;5044144;28;20045;-74
2023/01/12 12:29:29;;;;;;;3.67;2.60;;;14.30;96.70;;;;;;5042686;28;20797;-74
2023/01/12 12:32:18;;;;;;;3.25;1.88;;;14.40;96.70;;;;;;5044539;28;20045;-74
2023/01/12 12:35:04;;;;;;;5.80;2.20;;;14.40;96.70;;;;;;5042357;28;20045;-74
2023/01/12 12:37:47;;;;;;;6.03;2.13;;;14.50;96.70;;;;;;5042036;28;20049;-74
2023/01/12 12:40:29;;;;;;;5.57;2.42;;;14.60;96.70;;;;;;5042101;28;20049;-74
2023/01/12 12:46:09;;;;;;;4.10;2.00;;;14.40;96.70;;;;;;5043174;28;20045;-74
2023/01/12 12:48:47;;;;;;;7.45;2.78;;;14.20;96.70;;;;;;5044351;28;20049;-75
2023/01/12 12:51:16;;;;;;;4.53;2.40;;;14.10;96.70;;;;;;5043424;28;20051;-76
2023/01/12 12:53:48;;;;;;;4.85;2.30;;;14.00;96.70;;;;;;5035139;28;20052;-74
2023/01/12 12:56:19;;;;;;;5.07;2.10;;;13.90;96.70;;;;;;5043214;28;20491;-74
2023/01/12 12:58:50;;;;;;;4.57;2.08;;;13.90;96.70;;;;;;5042538;28;20092;-75
2023/01/12 13:01:53;;;;;;;2.25;1.65;;;14.00;96.70;;;;;;5043513;28;20382;-75
2023/01/12 13:05:00;;;;;;;4.60;2.30;;;14.10;96.70;;;;;;5044297;28;20284;-74
2023/01/12 13:07:35;;;;;;;3.90;1.85;;;14.30;96.70;;;;;;5042270;28;20060;-76
2023/01/12 13:10:19;;;;;;;4.15;1.60;;;14.50;96.70;;;;;;5023077;28;20115;-76
2023/01/12 13:12:57;;;;;;;3.75;1.90;;;14.60;96.70;;;;;;5044339;28;20049;-76
2023/01/12 13:15:31;;;;;;;3.42;1.95;;;14.70;96.70;;;;;;5026097;28;20053;-76
2023/01/12 13:17:59;;;;;;;2.33;1.73;;;14.80;96.70;;;;;;5043571;28;20048;-76
2023/01/12 13:20:51;;;;;;;4.65;2.10;;;15.00;96.70;;;;;;5034425;28;20072;-75
2023/01/12 13:23:49;;;;;;;4.90;2.70;;;15.10;96.70;;;;;;5043748;28;20041;-77
2023/01/12 13:26:44;;;;;;;4.38;2.50;;;15.20;96.70;;;;;;5044806;28;20132;-77
2023/01/12 13:29:41;;;;;;;6.00;2.38;;;15.30;96.70;;;;;;5042380;28;20044;-76
2023/01/12 13:32:34;;;;;;;6.20;2.00;;;15.30;96.70;;;;;;5042097;28;20118;-76
2023/01/12 13:35:03;;;;;;;3.72;1.90;;;15.40;96.70;;;;;;5040807;28;20610;-75
2023/01/12 13:37:43;;;;;;;4.10;1.77;;;15.20;96.70;;;;;;5042214;28;20045;-75
2023/01/12 13:40:18;;;;;;;3.75;1.52;;;15.00;96.70;;;;;;5043652;28;20048;-75
2023/01/12 13:45:36;;;;;;;4.47;2.15;;;14.80;96.70;;;;;;5036943;28;20500;-75
2023/01/12 13:48:07;;;;;;;4.13;2.58;;;14.70;96.70;;;;;;5042190;28;20164;-76
2023/01/12 13:50:36;;;;;;;4.03;1.88;;;14.60;96.70;;;;;;5025474;28;20041;-76
2023/01/12 13:53:04;;;;;;;8.93;3.05;;;14.50;96.70;;;;;;5042291;28;20041;-77